sensor_id;sensor_type;location;lat;lon;timestamp;pressure;altitude;pressure_sealevel;temperature;humidity
59289;BME280;45056;47.602;9.886;2023-04-07T00:01:40;92965.94;;;8.14;46.35
59289;BME280;45056;47.602;9.886;2023-04-07T00:04:09;92969.41;;;8.14;46.19
59289;BME280;45056;47.602;9.886;2023-04-07T00:06:38;92962.47;;;8.13;46.68
59289;BME280;45056;47.602;9.886;2023-04-07T00:09:09;92957.88;;;8.10;47.02
59289;BME280;45056;47.602;9.886;2023-04-07T00:11:37;92960.25;;;8.08;46.94
59289;BME280;45056;47.602;9.886;2023-04-07T00:14:05;92956.47;;;8.05;46.67
59289;BME280;45056;47.602;9.886;2023-04-07T00:16:33;92948.34;;;8.05;46.81
59289;BME280;45056;47.602;9.886;2023-04-07T00:19:01;92943.25;;;8.07;46.89
59289;BME280;45056;47.602;9.886;2023-04-07T00:21:29;92940.53;;;8.07;46.92
59289;BME280;45056;47.602;9.886;2023-04-07T00:23:58;92932.41;;;8.07;47.15
59289;BME280;45056;47.602;9.886;2023-04-07T00:26:26;92944.84;;;8.05;47.12
59289;BME280;45056;47.602;9.886;2023-04-07T00:28:57;92929.44;;;8.02;47.33
59289;BME280;45056;47.602;9.886;2023-04-07T00:31:25;92933.00;;;7.99;47.67
59289;BME280;45056;47.602;9.886;2023-04-07T00:33:53;92928.03;;;7.97;47.68
59289;BME280;45056;47.602;9.886;2023-04-07T00:36:23;92934.25;;;7.94;47.79
59289;BME280;45056;47.602;9.886;2023-04-07T00:38:51;92924.72;;;7.89;48.11
59289;BME280;45056;47.602;9.886;2023-04-07T00:41:20;92921.69;;;7.87;48.32
59289;BME280;45056;47.602;9.886;2023-04-07T00:43:49;92918.28;;;7.83;48.79
59289;BME280;45056;47.602;9.886;2023-04-07T00:46:17;92923.78;;;7.79;48.99
59289;BME280;45056;47.602;9.886;2023-04-07T00:48:49;92909.13;;;7.77;49.00
59289;BME280;45056;47.602;9.886;2023-04-07T00:51:19;92906.94;;;7.72;48.87
59289;BME280;45056;47.602;9.886;2023-04-07T00:53:48;92904.34;;;7.68;48.70
59289;BME280;45056;47.602;9.886;2023-04-07T00:56:16;92894.00;;;7.63;48.69
59289;BME280;45056;47.602;9.886;2023-04-07T00:58:45;92885.28;;;7.55;49.00
59289;BME280;45056;47.602;9.886;2023-04-07T01:01:18;92889.34;;;7.47;49.58
59289;BME280;45056;47.602;9.886;2023-04-07T01:03:55;92876.81;;;7.36;49.78
59289;BME280;45056;47.602;9.886;2023-04-07T01:06:34;92865.81;;;7.27;50.23
59289;BME280;45056;47.602;9.886;2023-04-07T01:09:17;92860.59;;;7.20;50.40
59289;BME280;45056;47.602;9.886;2023-04-07T01:11:58;92867.25;;;7.15;50.47
59289;BME280;45056;47.602;9.886;2023-04-07T01:14:41;92864.94;;;7.14;50.65
59289;BME280;45056;47.602;9.886;2023-04-07T01:17:20;92861.50;;;7.13;50.45
59289;BME280;45056;47.602;9.886;2023-04-07T01:19:58;92861.06;;;7.15;50.27
59289;BME280;45056;47.602;9.886;2023-04-07T01:22:33;92853.72;;;7.15;50.13
59289;BME280;45056;47.602;9.886;2023-04-07T01:25:25;92853.28;;;7.17;50.45
59289;BME280;45056;47.602;9.886;2023-04-07T01:28:14;92848.97;;;7.19;50.51
59289;BME280;45056;47.602;9.886;2023-04-07T01:31:05;92853.97;;;7.21;50.41
59289;BME280;45056;47.602;9.886;2023-04-07T01:33:37;92852.38;;;7.24;50.46
59289;BME280;45056;47.602;9.886;2023-04-07T01:36:11;92854.56;;;7.29;50.39
59289;BME280;45056;47.602;9.886;2023-04-07T01:38:41;92856.09;;;7.30;49.93
59289;BME280;45056;47.602;9.886;2023-04-07T01:41:14;92851.44;;;7.30;49.52
59289;BME280;45056;47.602;9.886;2023-04-07T01:43:45;92853.81;;;7.28;49.63
59289;BME280;45056;47.602;9.886;2023-04-07T01:46:16;92848.81;;;7.27;49.87
59289;BME280;45056;47.602;9.886;2023-04-07T01:48:46;92841.47;;;7.27;49.95
59289;BME280;45056;47.602;9.886;2023-04-07T01:51:16;92849.16;;;7.29;50.19
59289;BME280;45056;47.602;9.886;2023-04-07T01:53:47;92839.09;;;7.29;50.34
59289;BME280;45056;47.602;9.886;2023-04-07T01:56:16;92832.50;;;7.30;50.14
59289;BME280;45056;47.602;9.886;2023-04-07T01:58:44;92835.63;;;7.29;50.24
59289;BME280;45056;47.602;9.886;2023-04-07T02:01:12;92830.63;;;7.27;50.22
59289;BME280;45056;47.602;9.886;2023-04-07T02:03:56;92822.19;;;7.25;50.25
59289;BME280;45056;47.602;9.886;2023-04-07T02:06:38;92823.38;;;7.24;50.35
59289;BME280;45056;47.602;9.886;2023-04-07T02:09:12;92819.88;;;7.24;50.04
59289;BME280;45056;47.602;9.886;2023-04-07T02:11:44;92811.44;;;7.21;50.52
59289;BME280;45056;47.602;9.886;2023-04-07T02:14:13;92811.44;;;7.21;50.48
59289;BME280;45056;47.602;9.886;2023-04-07T02:16:45;92807.53;;;7.22;50.70
59289;BME280;45056;47.602;9.886;2023-04-07T02:19:17;92799.00;;;7.24;50.67
59289;BME280;45056;47.602;9.886;2023-04-07T02:21:47;92798.25;;;7.24;50.43
59289;BME280;45056;47.602;9.886;2023-04-07T02:24:19;92797.91;;;7.21;50.38
59289;BME280;45056;47.602;9.886;2023-04-07T02:26:47;92791.41;;;7.19;50.48
59289;BME280;45056;47.602;9.886;2023-04-07T02:29:16;92784.47;;;7.18;50.30
59289;BME280;45056;47.602;9.886;2023-04-07T02:31:43;92781.78;;;7.18;49.97
59289;BME280;45056;47.602;9.886;2023-04-07T02:34:11;92778.69;;;7.16;50.36
59289;BME280;45056;47.602;9.886;2023-04-07T02:36:41;92788.44;;;7.13;50.12
59289;BME280;45056;47.602;9.886;2023-04-07T02:39:09;92773.06;;;7.10;49.74
59289;BME280;45056;47.602;9.886;2023-04-07T02:41:37;92773.47;;;7.08;49.70
59289;BME280;45056;47.602;9.886;2023-04-07T02:44:05;92772.78;;;7.04;49.46
59289;BME280;45056;47.602;9.886;2023-04-07T02:46:33;92771.59;;;7.05;49.30
59289;BME280;45056;47.602;9.886;2023-04-07T02:49:01;92770.41;;;7.06;48.88
59289;BME280;45056;47.602;9.886;2023-04-07T02:51:29;92763.81;;;7.07;48.79
59289;BME280;45056;47.602;9.886;2023-04-07T02:53:58;92763.09;;;7.07;48.29
59289;BME280;45056;47.602;9.886;2023-04-07T02:56:26;92758.09;;;7.05;48.24
59289;BME280;45056;47.602;9.886;2023-04-07T02:58:54;92761.56;;;7.06;48.18
59289;BME280;45056;47.602;9.886;2023-04-07T03:01:22;92749.22;;;7.05;48.07
59289;BME280;45056;47.602;9.886;2023-04-07T03:03:50;92741.44;;;7.07;48.08
59289;BME280;45056;47.602;9.886;2023-04-07T03:06:18;92741.44;;;7.07;47.99
59289;BME280;45056;47.602;9.886;2023-04-07T03:08:46;92741.44;;;7.07;47.88
59289;BME280;45056;47.602;9.886;2023-04-07T03:11:16;92743.69;;;7.08;48.06
59289;BME280;45056;47.602;9.886;2023-04-07T03:13:44;92732.88;;;7.08;47.98
59289;BME280;45056;47.602;9.886;2023-04-07T03:16:12;92733.22;;;7.11;47.82
59289;BME280;45056;47.602;9.886;2023-04-07T03:18:40;92732.47;;;7.10;47.64
59289;BME280;45056;47.602;9.886;2023-04-07T03:21:08;92726.28;;;7.10;47.65
59289;BME280;45056;47.602;9.886;2023-04-07T03:23:35;92729.00;;;7.10;47.82
59289;BME280;45056;47.602;9.886;2023-04-07T03:26:03;92734.41;;;7.10;47.71
59289;BME280;45056;47.602;9.886;2023-04-07T03:28:33;92727.47;;;7.08;47.47
59289;BME280;45056;47.602;9.886;2023-04-07T03:31:01;92727.47;;;7.08;47.57
59289;BME280;45056;47.602;9.886;2023-04-07T03:33:30;92727.47;;;7.08;47.24
59289;BME280;45056;47.602;9.886;2023-04-07T03:35:58;92715.13;;;7.07;47.34
59289;BME280;45056;47.602;9.886;2023-04-07T03:38:26;92715.13;;;7.07;47.41
59289;BME280;45056;47.602;9.886;2023-04-07T03:40:54;92717.84;;;7.07;47.34
59289;BME280;45056;47.602;9.886;2023-04-07T03:43:22;92717.84;;;7.07;47.18
59289;BME280;45056;47.602;9.886;2023-04-07T03:45:53;92720.22;;;7.05;47.12
59289;BME280;45056;47.602;9.886;2023-04-07T03:48:21;92719.53;;;7.01;47.18
59289;BME280;45056;47.602;9.886;2023-04-07T03:50:49;92714.13;;;7.01;47.11
59289;BME280;45056;47.602;9.886;2023-04-07T03:53:17;92713.78;;;6.99;47.20
59289;BME280;45056;47.602;9.886;2023-04-07T03:55:45;92712.28;;;6.98;47.07
59289;BME280;45056;47.602;9.886;2023-04-07T03:58:14;92709.22;;;6.96;47.08
59289;BME280;45056;47.602;9.886;2023-04-07T04:00:43;92711.59;;;6.94;47.06
59289;BME280;45056;47.602;9.886;2023-04-07T04:03:12;92707.03;;;6.91;47.38
59289;BME280;45056;47.602;9.886;2023-04-07T04:05:40;92706.72;;;6.89;47.12
59289;BME280;45056;47.602;9.886;2023-04-07T04:08:08;92705.94;;;6.88;47.20
59289;BME280;45056;47.602;9.886;2023-04-07T04:10:36;92702.47;;;6.88;47.31
59289;BME280;45056;47.602;9.886;2023-04-07T04:13:04;92700.97;;;6.87;47.54
59289;BME280;45056;47.602;9.886;2023-04-07T04:15:33;92699.00;;;6.87;47.54
59289;BME280;45056;47.602;9.886;2023-04-07T04:18:01;92700.19;;;6.86;47.65
59289;BME280;45056;47.602;9.886;2023-04-07T04:20:30;92700.59;;;6.85;47.67
59289;BME280;45056;47.602;9.886;2023-04-07T04:22:58;92695.19;;;6.85;47.41
59289;BME280;45056;47.602;9.886;2023-04-07T04:25:26;92690.56;;;6.85;47.61
59289;BME280;45056;47.602;9.886;2023-04-07T04:27:54;92685.91;;;6.86;47.61
59289;BME280;45056;47.602;9.886;2023-04-07T04:30:22;92685.91;;;6.86;47.51
59289;BME280;45056;47.602;9.886;2023-04-07T04:32:50;92680.06;;;6.87;47.50
59289;BME280;45056;47.602;9.886;2023-04-07T04:35:18;92686.25;;;6.88;47.77
59289;BME280;45056;47.602;9.886;2023-04-07T04:37:49;92677.38;;;6.87;47.42
59289;BME280;45056;47.602;9.886;2023-04-07T04:40:17;92668.50;;;6.87;47.59
59289;BME280;45056;47.602;9.886;2023-04-07T04:42:45;92676.25;;;6.85;47.68
59289;BME280;45056;47.602;9.886;2023-04-07T04:45:13;92660.47;;;6.83;47.62
59289;BME280;45056;47.602;9.886;2023-04-07T04:47:41;92670.97;;;6.81;47.61
59289;BME280;45056;47.602;9.886;2023-04-07T04:50:10;92682.63;;;6.78;47.69
59289;BME280;45056;47.602;9.886;2023-04-07T04:52:38;92673.41;;;6.75;47.81
59289;BME280;45056;47.602;9.886;2023-04-07T04:55:08;92678.13;;;6.71;47.73
59289;BME280;45056;47.602;9.886;2023-04-07T04:57:36;92675.84;;;6.70;47.89
59289;BME280;45056;47.602;9.886;2023-04-07T05:00:06;92676.28;;;6.68;47.76
59289;BME280;45056;47.602;9.886;2023-04-07T05:02:35;92675.09;;;6.69;47.81
59289;BME280;45056;47.602;9.886;2023-04-07T05:05:04;92676.63;;;6.70;47.85
59289;BME280;45056;47.602;9.886;2023-04-07T05:07:33;92676.19;;;6.72;47.79
59289;BME280;45056;47.602;9.886;2023-04-07T05:10:01;92677.72;;;6.73;47.57
59289;BME280;45056;47.602;9.886;2023-04-07T05:12:30;92678.81;;;6.75;47.40
59289;BME280;45056;47.602;9.886;2023-04-07T05:14:58;92669.44;;;6.80;47.46
59289;BME280;45056;47.602;9.886;2023-04-07T05:17:26;92670.97;;;6.81;47.63
59289;BME280;45056;47.602;9.886;2023-04-07T05:19:54;92678.97;;;6.85;47.50
59289;BME280;45056;47.602;9.886;2023-04-07T05:22:22;92680.84;;;6.88;47.37
59289;BME280;45056;47.602;9.886;2023-04-07T05:24:50;92680.31;;;6.93;47.42
59289;BME280;45056;47.602;9.886;2023-04-07T05:27:19;92674.41;;;6.98;47.16
59289;BME280;45056;47.602;9.886;2023-04-07T05:29:48;92674.28;;;7.02;47.21
59289;BME280;45056;47.602;9.886;2023-04-07T05:32:18;92675.31;;;7.08;47.06
59289;BME280;45056;47.602;9.886;2023-04-07T05:34:46;92676.75;;;7.13;47.05
59289;BME280;45056;47.602;9.886;2023-04-07T05:37:14;92670.84;;;7.18;47.00
59289;BME280;45056;47.602;9.886;2023-04-07T05:39:42;92666.84;;;7.22;47.11
59289;BME280;45056;47.602;9.886;2023-04-07T05:42:10;92669.78;;;7.28;47.07
59289;BME280;45056;47.602;9.886;2023-04-07T05:44:38;92669.25;;;7.33;46.84
59289;BME280;45056;47.602;9.886;2023-04-07T05:47:08;92664.50;;;7.38;46.60
59289;BME280;45056;47.602;9.886;2023-04-07T05:49:38;92669.84;;;7.41;46.50
59289;BME280;45056;47.602;9.886;2023-04-07T05:52:11;92675.13;;;7.45;46.55
59289;BME280;45056;47.602;9.886;2023-04-07T05:54:39;92682.41;;;7.48;46.62
59289;BME280;45056;47.602;9.886;2023-04-07T05:57:07;92670.41;;;7.49;46.64
59289;BME280;45056;47.602;9.886;2023-04-07T05:59:36;92675.31;;;7.54;46.55
59289;BME280;45056;47.602;9.886;2023-04-07T06:02:04;92669.03;;;7.57;46.28
59289;BME280;45056;47.602;9.886;2023-04-07T06:04:33;92675.09;;;7.61;46.17
59289;BME280;45056;47.602;9.886;2023-04-07T06:07:02;92669.16;;;7.67;46.07
59289;BME280;45056;47.602;9.886;2023-04-07T06:09:31;92669.47;;;7.69;46.12
59289;BME280;45056;47.602;9.886;2023-04-07T06:11:59;92667.44;;;7.73;45.79
59289;BME280;45056;47.602;9.886;2023-04-07T06:14:30;92659.53;;;7.78;45.88
59289;BME280;45056;47.602;9.886;2023-04-07T06:16:58;92662.91;;;7.83;45.73
59289;BME280;45056;47.602;9.886;2023-04-07T06:19:26;92659.25;;;7.89;45.45
59289;BME280;45056;47.602;9.886;2023-04-07T06:21:55;92664.88;;;7.95;45.54
59289;BME280;45056;47.602;9.886;2023-04-07T06:24:23;92664.34;;;8.00;45.58
59289;BME280;45056;47.602;9.886;2023-04-07T06:26:51;92665.75;;;8.05;45.56
59289;BME280;45056;47.602;9.886;2023-04-07T06:29:21;92665.22;;;8.10;45.67
59289;BME280;45056;47.602;9.886;2023-04-07T06:31:49;92660.47;;;8.14;45.92
59289;BME280;45056;47.602;9.886;2023-04-07T06:34:17;92660.34;;;8.18;45.93
59289;BME280;45056;47.602;9.886;2023-04-07T06:36:45;92656.34;;;8.22;45.99
59289;BME280;45056;47.602;9.886;2023-04-07T06:39:15;92651.59;;;8.27;46.08
59289;BME280;45056;47.602;9.886;2023-04-07T06:41:43;92648.31;;;8.32;46.05
59289;BME280;45056;47.602;9.886;2023-04-07T06:44:12;92654.19;;;8.43;46.02
59289;BME280;45056;47.602;9.886;2023-04-07T06:46:40;92645.00;;;8.54;45.75
59289;BME280;45056;47.602;9.886;2023-04-07T06:49:09;92638.47;;;8.64;45.29
59289;BME280;45056;47.602;9.886;2023-04-07T06:51:37;92651.13;;;8.80;44.45
59289;BME280;45056;47.602;9.886;2023-04-07T06:54:05;92643.19;;;8.99;44.15
59289;BME280;45056;47.602;9.886;2023-04-07T06:56:39;92650.28;;;9.18;43.92
59289;BME280;45056;47.602;9.886;2023-04-07T06:59:08;92645.88;;;9.34;43.22
59289;BME280;45056;47.602;9.886;2023-04-07T07:01:36;92651.59;;;9.49;42.97
59289;BME280;45056;47.602;9.886;2023-04-07T07:04:04;92646.41;;;9.64;42.96
59289;BME280;45056;47.602;9.886;2023-04-07T07:06:32;92657.94;;;9.77;43.02
59289;BME280;45056;47.602;9.886;2023-04-07T07:09:00;92646.38;;;9.86;42.34
59289;BME280;45056;47.602;9.886;2023-04-07T07:11:29;92645.00;;;10.04;42.35
59289;BME280;45056;47.602;9.886;2023-04-07T07:13:58;92646.72;;;10.20;42.31
59289;BME280;45056;47.602;9.886;2023-04-07T07:16:26;92650.25;;;10.30;42.15
59289;BME280;45056;47.602;9.886;2023-04-07T07:18:54;92656.63;;;10.36;42.30
59289;BME280;45056;47.602;9.886;2023-04-07T07:21:22;92650.28;;;10.39;42.35
59289;BME280;45056;47.602;9.886;2023-04-07T07:23:51;92653.59;;;10.34;42.41
59289;BME280;45056;47.602;9.886;2023-04-07T07:26:19;92651.78;;;10.31;42.22
59289;BME280;45056;47.602;9.886;2023-04-07T07:28:47;92655.09;;;10.35;42.22
59289;BME280;45056;47.602;9.886;2023-04-07T07:31:17;92656.25;;;10.47;41.83
59289;BME280;45056;47.602;9.886;2023-04-07T07:33:45;92654.94;;;10.61;41.94
59289;BME280;45056;47.602;9.886;2023-04-07T07:36:15;92657.53;;;10.74;41.51
59289;BME280;45056;47.602;9.886;2023-04-07T07:38:43;92657.09;;;10.85;41.12
59289;BME280;45056;47.602;9.886;2023-04-07T07:41:11;92653.81;;;11.08;40.48
59289;BME280;45056;47.602;9.886;2023-04-07T07:43:39;92647.81;;;11.32;40.64
59289;BME280;45056;47.602;9.886;2023-04-07T07:46:07;92653.53;;;11.53;40.36
59289;BME280;45056;47.602;9.886;2023-04-07T07:48:37;92643.53;;;11.78;39.80
59289;BME280;45056;47.602;9.886;2023-04-07T07:51:05;92641.72;;;12.03;38.89
59289;BME280;45056;47.602;9.886;2023-04-07T07:53:33;92643.19;;;12.22;38.84
59289;BME280;45056;47.602;9.886;2023-04-07T07:56:01;92645.09;;;12.40;38.84
59289;BME280;45056;47.602;9.886;2023-04-07T07:58:29;92641.53;;;12.59;38.48
59289;BME280;45056;47.602;9.886;2023-04-07T08:00:57;92645.91;;;12.65;38.50
59289;BME280;45056;47.602;9.886;2023-04-07T08:03:25;92642.66;;;12.76;38.38
59289;BME280;45056;47.602;9.886;2023-04-07T08:05:54;92639.06;;;12.94;38.02
59289;BME280;45056;47.602;9.886;2023-04-07T08:08:22;92639.47;;;13.02;37.34
59289;BME280;45056;47.602;9.886;2023-04-07T08:10:50;92634.44;;;13.10;37.07
59289;BME280;45056;47.602;9.886;2023-04-07T08:13:18;92642.97;;;13.27;36.99
59289;BME280;45056;47.602;9.886;2023-04-07T08:15:46;92639.22;;;13.39;35.97
59289;BME280;45056;47.602;9.886;2023-04-07T08:18:14;92638.16;;;13.46;35.58
59289;BME280;45056;47.602;9.886;2023-04-07T08:20:42;92642.69;;;13.49;35.29
59289;BME280;45056;47.602;9.886;2023-04-07T08:23:11;92638.19;;;13.61;35.20
59289;BME280;45056;47.602;9.886;2023-04-07T08:25:39;92645.19;;;13.77;35.21
59289;BME280;45056;47.602;9.886;2023-04-07T08:28:07;92646.25;;;13.95;35.21
59289;BME280;45056;47.602;9.886;2023-04-07T08:30:35;92647.22;;;14.07;34.34
59289;BME280;45056;47.602;9.886;2023-04-07T08:33:04;92648.44;;;14.06;34.16
59289;BME280;45056;47.602;9.886;2023-04-07T08:35:33;92643.97;;;13.93;34.25
59289;BME280;45056;47.602;9.886;2023-04-07T08:38:01;92641.06;;;13.82;34.65
59289;BME280;45056;47.602;9.886;2023-04-07T08:40:31;92635.00;;;13.78;34.54
59289;BME280;45056;47.602;9.886;2023-04-07T08:43:00;92644.72;;;13.79;34.37
59289;BME280;45056;47.602;9.886;2023-04-07T08:45:38;92641.50;;;13.80;34.50
59289;BME280;45056;47.602;9.886;2023-04-07T08:48:15;92639.44;;;13.90;34.70
59289;BME280;45056;47.602;9.886;2023-04-07T08:50:44;92638.78;;;13.95;34.33
59289;BME280;45056;47.602;9.886;2023-04-07T08:53:17;92637.84;;;13.98;34.80
59289;BME280;45056;47.602;9.886;2023-04-07T08:55:52;92649.16;;;14.06;34.43
59289;BME280;45056;47.602;9.886;2023-04-07T08:58:22;92643.13;;;14.17;34.27
59289;BME280;45056;47.602;9.886;2023-04-07T09:00:51;92642.47;;;14.22;33.98
59289;BME280;45056;47.602;9.886;2023-04-07T09:03:20;92645.50;;;14.24;33.65
59289;BME280;45056;47.602;9.886;2023-04-07T09:05:50;92654.25;;;14.28;33.48
59289;BME280;45056;47.602;9.886;2023-04-07T09:08:18;92646.91;;;14.35;33.83
59289;BME280;45056;47.602;9.886;2023-04-07T09:10:46;92657.00;;;14.43;32.85
59289;BME280;45056;47.602;9.886;2023-04-07T09:13:16;92652.56;;;14.46;32.51
59289;BME280;45056;47.602;9.886;2023-04-07T09:15:44;92650.28;;;14.45;32.23
59289;BME280;45056;47.602;9.886;2023-04-07T09:18:13;92648.78;;;14.43;32.49
59289;BME280;45056;47.602;9.886;2023-04-07T09:20:55;92645.59;;;14.45;32.42
59289;BME280;45056;47.602;9.886;2023-04-07T09:23:29;92647.56;;;14.45;32.76
59289;BME280;45056;47.602;9.886;2023-04-07T09:26:19;92646.59;;;14.48;32.58
59289;BME280;45056;47.602;9.886;2023-04-07T09:28:53;92647.81;;;14.47;33.39
59289;BME280;45056;47.602;9.886;2023-04-07T09:31:42;92640.28;;;14.56;33.16
59289;BME280;45056;47.602;9.886;2023-04-07T09:34:23;92642.88;;;14.66;33.33
59289;BME280;45056;47.602;9.886;2023-04-07T09:36:52;92648.31;;;14.75;33.10
59289;BME280;45056;47.602;9.886;2023-04-07T09:39:20;92639.69;;;14.82;32.95
59289;BME280;45056;47.602;9.886;2023-04-07T09:41:48;92648.19;;;14.84;32.79
59289;BME280;45056;47.602;9.886;2023-04-07T09:44:18;92638.00;;;14.85;32.87
59289;BME280;45056;47.602;9.886;2023-04-07T09:46:51;92643.47;;;14.85;32.81
59289;BME280;45056;47.602;9.886;2023-04-07T09:49:20;92640.78;;;14.91;32.29
59289;BME280;45056;47.602;9.886;2023-04-07T09:51:54;92636.13;;;14.97;32.63
59289;BME280;45056;47.602;9.886;2023-04-07T09:54:33;92635.19;;;15.00;32.65
59289;BME280;45056;47.602;9.886;2023-04-07T09:57:03;92637.25;;;15.05;32.74
59289;BME280;45056;47.602;9.886;2023-04-07T09:59:35;92637.94;;;15.00;32.61
59289;BME280;45056;47.602;9.886;2023-04-07T10:02:06;92641.34;;;14.95;33.28
59289;BME280;45056;47.602;9.886;2023-04-07T10:04:34;92638.31;;;14.93;33.04
59289;BME280;45056;47.602;9.886;2023-04-07T10:07:04;92648.53;;;14.92;33.13
59289;BME280;45056;47.602;9.886;2023-04-07T10:09:32;92637.09;;;14.94;32.66
59289;BME280;45056;47.602;9.886;2023-04-07T10:12:01;92633.63;;;14.93;32.82
59289;BME280;45056;47.602;9.886;2023-04-07T10:14:31;92637.22;;;14.84;33.14
59289;BME280;45056;47.602;9.886;2023-04-07T10:17:02;92632.97;;;14.83;33.65
59289;BME280;45056;47.602;9.886;2023-04-07T10:19:31;92634.22;;;14.82;33.75
59289;BME280;45056;47.602;9.886;2023-04-07T10:22:04;92642.16;;;14.80;33.84
59289;BME280;45056;47.602;9.886;2023-04-07T10:24:45;92632.59;;;14.76;33.72
59289;BME280;45056;47.602;9.886;2023-04-07T10:27:27;92638.31;;;14.72;34.17
59289;BME280;45056;47.602;9.886;2023-04-07T10:30:00;92641.69;;;14.67;34.27
59289;BME280;45056;47.602;9.886;2023-04-07T10:32:45;92641.50;;;14.55;34.07
59289;BME280;45056;47.602;9.886;2023-04-07T10:35:15;92635.88;;;14.44;33.95
59289;BME280;45056;47.602;9.886;2023-04-07T10:38:11;92646.25;;;14.40;34.63
59289;BME280;45056;47.602;9.886;2023-04-07T10:40:41;92633.41;;;14.31;35.00
59289;BME280;45056;47.602;9.886;2023-04-07T10:43:10;92635.78;;;14.23;34.82
59289;BME280;45056;47.602;9.886;2023-04-07T10:45:54;92639.34;;;14.14;35.51
59289;BME280;45056;47.602;9.886;2023-04-07T10:48:26;92640.50;;;14.08;35.64
59289;BME280;45056;47.602;9.886;2023-04-07T10:51:14;92641.16;;;14.03;35.43
59289;BME280;45056;47.602;9.886;2023-04-07T10:54:17;92637.28;;;13.94;35.57
59289;BME280;45056;47.602;9.886;2023-04-07T10:57:08;92641.44;;;13.90;35.62
59289;BME280;45056;47.602;9.886;2023-04-07T10:59:41;92635.22;;;13.89;35.53
59289;BME280;45056;47.602;9.886;2023-04-07T11:02:33;92632.75;;;13.91;35.72
59289;BME280;45056;47.602;9.886;2023-04-07T11:05:04;92630.50;;;13.90;35.68
59289;BME280;45056;47.602;9.886;2023-04-07T11:07:50;92636.88;;;13.87;35.76
59289;BME280;45056;47.602;9.886;2023-04-07T11:10:23;92629.16;;;13.85;35.83
59289;BME280;45056;47.602;9.886;2023-04-07T11:12:59;92631.53;;;13.92;36.20
59289;BME280;45056;47.602;9.886;2023-04-07T11:15:29;92636.91;;;14.02;35.95
59289;BME280;45056;47.602;9.886;2023-04-07T11:18:21;92634.00;;;14.05;36.22
59289;BME280;45056;47.602;9.886;2023-04-07T11:20:53;92632.75;;;14.06;36.33
59289;BME280;45056;47.602;9.886;2023-04-07T11:23:23;92634.09;;;14.11;36.58
59289;BME280;45056;47.602;9.886;2023-04-07T11:25:59;92636.34;;;14.12;36.84
59289;BME280;45056;47.602;9.886;2023-04-07T11:28:28;92635.22;;;14.19;36.66
59289;BME280;45056;47.602;9.886;2023-04-07T11:30:57;92636.34;;;14.27;36.18
59289;BME280;45056;47.602;9.886;2023-04-07T11:33:27;92640.97;;;14.36;35.92
59289;BME280;45056;47.602;9.886;2023-04-07T11:35:59;92641.63;;;14.46;36.45
59289;BME280;45056;47.602;9.886;2023-04-07T11:38:34;92643.13;;;14.47;36.02
59289;BME280;45056;47.602;9.886;2023-04-07T11:41:15;92637.56;;;14.41;36.13
59289;BME280;45056;47.602;9.886;2023-04-07T11:43:43;92636.72;;;14.35;35.92
59289;BME280;45056;47.602;9.886;2023-04-07T11:46:13;92634.53;;;14.24;36.20
59289;BME280;45056;47.602;9.886;2023-04-07T11:48:44;92637.66;;;14.17;36.44
59289;BME280;45056;47.602;9.886;2023-04-07T11:51:19;92646.53;;;14.12;36.64
59289;BME280;45056;47.602;9.886;2023-04-07T11:53:54;92643.41;;;14.04;36.74
59289;BME280;45056;47.602;9.886;2023-04-07T11:56:23;92646.06;;;13.98;36.83
59289;BME280;45056;47.602;9.886;2023-04-07T11:58:52;92639.34;;;13.99;36.30
59289;BME280;45056;47.602;9.886;2023-04-07T12:01:22;92639.19;;;14.03;36.17
59289;BME280;45056;47.602;9.886;2023-04-07T12:03:55;92639.84;;;14.13;35.93
59289;BME280;45056;47.602;9.886;2023-04-07T12:06:31;92637.28;;;14.24;36.29
59289;BME280;45056;47.602;9.886;2023-04-07T12:09:02;92652.94;;;14.39;35.42
59289;BME280;45056;47.602;9.886;2023-04-07T12:11:32;92651.22;;;14.56;35.14
59289;BME280;45056;47.602;9.886;2023-04-07T12:14:02;92641.59;;;14.76;35.28
59289;BME280;45056;47.602;9.886;2023-04-07T12:16:36;92644.16;;;15.00;35.77
59289;BME280;45056;47.602;9.886;2023-04-07T12:19:04;92645.16;;;15.18;35.97
59289;BME280;45056;47.602;9.886;2023-04-07T12:21:34;92650.50;;;15.27;36.06
59289;BME280;45056;47.602;9.886;2023-04-07T12:24:02;92639.53;;;15.27;36.03
59289;BME280;45056;47.602;9.886;2023-04-07T12:26:30;92645.47;;;15.26;35.97
59289;BME280;45056;47.602;9.886;2023-04-07T12:28:58;92646.94;;;15.21;36.25
59289;BME280;45056;47.602;9.886;2023-04-07T12:31:30;92650.13;;;15.20;36.32
59289;BME280;45056;47.602;9.886;2023-04-07T12:33:59;92648.16;;;15.20;36.12
59289;BME280;45056;47.602;9.886;2023-04-07T12:36:27;92642.47;;;15.24;36.13
59289;BME280;45056;47.602;9.886;2023-04-07T12:38:56;92654.53;;;15.32;36.13
59289;BME280;45056;47.602;9.886;2023-04-07T12:41:25;92653.84;;;15.37;35.90
59289;BME280;45056;47.602;9.886;2023-04-07T12:43:53;92642.00;;;15.46;36.12
59289;BME280;45056;47.602;9.886;2023-04-07T12:46:21;92653.16;;;15.63;35.44
59289;BME280;45056;47.602;9.886;2023-04-07T12:48:49;92653.13;;;15.84;35.99
59289;BME280;45056;47.602;9.886;2023-04-07T12:51:17;92646.06;;;15.98;35.68
59289;BME280;45056;47.602;9.886;2023-04-07T12:53:45;92650.66;;;16.07;35.67
59289;BME280;45056;47.602;9.886;2023-04-07T12:56:15;92644.94;;;16.10;35.46
59289;BME280;45056;47.602;9.886;2023-04-07T12:58:43;92647.84;;;16.01;34.94
59289;BME280;45056;47.602;9.886;2023-04-07T13:01:11;92654.25;;;15.92;34.93
59289;BME280;45056;47.602;9.886;2023-04-07T13:03:39;92657.19;;;15.89;35.28
59289;BME280;45056;47.602;9.886;2023-04-07T13:06:08;92655.88;;;15.84;35.00
59289;BME280;45056;47.602;9.886;2023-04-07T13:08:36;92649.56;;;15.78;34.96
59289;BME280;45056;47.602;9.886;2023-04-07T13:11:05;92654.31;;;15.77;35.25
59289;BME280;45056;47.602;9.886;2023-04-07T13:13:35;92649.78;;;15.74;35.92
59289;BME280;45056;47.602;9.886;2023-04-07T13:16:03;92660.69;;;15.68;35.44
59289;BME280;45056;47.602;9.886;2023-04-07T13:18:32;92650.44;;;15.63;35.63
59289;BME280;45056;47.602;9.886;2023-04-07T13:21:00;92650.16;;;15.61;36.24
59289;BME280;45056;47.602;9.886;2023-04-07T13:23:28;92654.59;;;15.58;36.21